sensor_id;sensor_type;location;lat;lon;timestamp;temperature;humidity
65072;DHT22;51663;52.310;17.016;2022-10-16T00:02:00;34.10;32.30
65072;DHT22;51663;52.310;17.016;2022-10-16T00:05:02;34.00;32.40
65072;DHT22;51663;52.310;17.016;2022-10-16T00:08:04;34.10;32.20
65072;DHT22;51663;52.310;17.016;2022-10-16T00:11:13;34.10;32.30
65072;DHT22;51663;52.310;17.016;2022-10-16T00:14:15;34.10;32.10
65072;DHT22;51663;52.310;17.016;2022-10-16T00:17:17;34.20;32.10
65072;DHT22;51663;52.310;17.016;2022-10-16T00:20:19;34.30;32.10
65072;DHT22;51663;52.310;17.016;2022-10-16T00:23:22;34.20;32.10
65072;DHT22;51663;52.310;17.016;2022-10-16T00:26:24;34.20;32.20
65072;DHT22;51663;52.310;17.016;2022-10-16T00:29:26;34.20;32.20
65072;DHT22;51663;52.310;17.016;2022-10-16T00:32:28;34.20;32.30
65072;DHT22;51663;52.310;17.016;2022-10-16T00:35:31;34.30;32.40
65072;DHT22;51663;52.310;17.016;2022-10-16T00:38:33;34.20;32.40
65072;DHT22;51663;52.310;17.016;2022-10-16T00:41:35;34.10;32.50
65072;DHT22;51663;52.310;17.016;2022-10-16T00:44:55;34.10;32.70
65072;DHT22;51663;52.310;17.016;2022-10-16T00:48:00;34.20;32.70
65072;DHT22;51663;52.310;17.016;2022-10-16T00:51:02;34.40;32.50
65072;DHT22;51663;52.310;17.016;2022-10-16T00:54:19;34.50;32.50
65072;DHT22;51663;52.310;17.016;2022-10-16T00:57:23;34.50;32.30
65072;DHT22;51663;52.310;17.016;2022-10-16T01:00:26;34.60;32.20
65072;DHT22;51663;52.310;17.016;2022-10-16T01:03:35;34.60;32.10
65072;DHT22;51663;52.310;17.016;2022-10-16T01:10:07;34.80;31.90
65072;DHT22;51663;52.310;17.016;2022-10-16T01:13:21;34.80;32.00
65072;DHT22;51663;52.310;17.016;2022-10-16T01:22:54;34.80;31.90
65072;DHT22;51663;52.310;17.016;2022-10-16T01:29:18;34.80;32.00
65072;DHT22;51663;52.310;17.016;2022-10-16T01:32:33;34.90;31.90
65072;DHT22;51663;52.310;17.016;2022-10-16T01:35:54;34.80;31.90
65072;DHT22;51663;52.310;17.016;2022-10-16T01:39:01;34.70;32.20
65072;DHT22;51663;52.310;17.016;2022-10-16T01:42:09;34.80;32.00
65072;DHT22;51663;52.310;17.016;2022-10-16T01:45:14;34.80;32.00
65072;DHT22;51663;52.310;17.016;2022-10-16T01:48:21;34.80;32.00
65072;DHT22;51663;52.310;17.016;2022-10-16T01:51:25;34.70;32.00
65072;DHT22;51663;52.310;17.016;2022-10-16T01:54:28;34.80;32.00
65072;DHT22;51663;52.310;17.016;2022-10-16T01:57:34;34.80;32.00
65072;DHT22;51663;52.310;17.016;2022-10-16T02:00:41;34.90;32.00
65072;DHT22;51663;52.310;17.016;2022-10-16T02:03:45;34.80;32.00
65072;DHT22;51663;52.310;17.016;2022-10-16T02:06:48;34.80;32.00
65072;DHT22;51663;52.310;17.016;2022-10-16T02:09:50;34.80;32.10
65072;DHT22;51663;52.310;17.016;2022-10-16T02:13:11;34.70;32.00
65072;DHT22;51663;52.310;17.016;2022-10-16T02:16:14;34.70;32.10
65072;DHT22;51663;52.310;17.016;2022-10-16T02:19:18;34.70;32.20
65072;DHT22;51663;52.310;17.016;2022-10-16T02:22:38;34.80;32.20
65072;DHT22;51663;52.310;17.016;2022-10-16T02:25:44;34.80;32.30
65072;DHT22;51663;52.310;17.016;2022-10-16T02:28:52;34.80;32.20
65072;DHT22;51663;52.310;17.016;2022-10-16T02:32:02;34.70;32.30
65072;DHT22;51663;52.310;17.016;2022-10-16T02:35:07;34.80;32.30
65072;DHT22;51663;52.310;17.016;2022-10-16T02:38:10;34.80;32.20
65072;DHT22;51663;52.310;17.016;2022-10-16T02:41:14;34.80;32.20
65072;DHT22;51663;52.310;17.016;2022-10-16T02:44:16;34.90;32.20
65072;DHT22;51663;52.310;17.016;2022-10-16T02:47:18;34.80;32.30
65072;DHT22;51663;52.310;17.016;2022-10-16T02:50:20;34.90;32.30
65072;DHT22;51663;52.310;17.016;2022-10-16T02:53:22;34.90;32.50
65072;DHT22;51663;52.310;17.016;2022-10-16T02:56:24;34.80;32.40
65072;DHT22;51663;52.310;17.016;2022-10-16T02:59:26;34.90;32.40
65072;DHT22;51663;52.310;17.016;2022-10-16T03:02:28;34.90;32.40
65072;DHT22;51663;52.310;17.016;2022-10-16T03:05:30;34.80;32.50
65072;DHT22;51663;52.310;17.016;2022-10-16T03:08:32;34.70;32.60
65072;DHT22;51663;52.310;17.016;2022-10-16T03:11:34;34.70;33.10
65072;DHT22;51663;52.310;17.016;2022-10-16T03:14:36;34.70;32.70
65072;DHT22;51663;52.310;17.016;2022-10-16T03:17:38;34.60;33.00
65072;DHT22;51663;52.310;17.016;2022-10-16T03:20:42;34.60;33.00
65072;DHT22;51663;52.310;17.016;2022-10-16T03:23:44;34.50;33.40
65072;DHT22;51663;52.310;17.016;2022-10-16T03:26:46;34.50;33.50
65072;DHT22;51663;52.310;17.016;2022-10-16T03:29:48;34.60;33.50
65072;DHT22;51663;52.310;17.016;2022-10-16T03:32:50;34.70;33.40
65072;DHT22;51663;52.310;17.016;2022-10-16T03:35:55;34.70;33.30
65072;DHT22;51663;52.310;17.016;2022-10-16T03:38:58;34.70;33.30
65072;DHT22;51663;52.310;17.016;2022-10-16T03:41:59;34.60;33.30
65072;DHT22;51663;52.310;17.016;2022-10-16T03:45:01;34.60;33.60
65072;DHT22;51663;52.310;17.016;2022-10-16T03:48:04;34.60;33.50
65072;DHT22;51663;52.310;17.016;2022-10-16T03:51:06;34.60;33.60
65072;DHT22;51663;52.310;17.016;2022-10-16T03:54:09;34.50;33.50
65072;DHT22;51663;52.310;17.016;2022-10-16T03:57:11;34.50;33.80
65072;DHT22;51663;52.310;17.016;2022-10-16T04:00:13;34.40;34.00
65072;DHT22;51663;52.310;17.016;2022-10-16T04:03:16;34.30;34.20
65072;DHT22;51663;52.310;17.016;2022-10-16T04:06:19;34.20;34.30
65072;DHT22;51663;52.310;17.016;2022-10-16T04:09:21;34.50;34.10
65072;DHT22;51663;52.310;17.016;2022-10-16T04:12:23;34.50;34.00
65072;DHT22;51663;52.310;17.016;2022-10-16T04:15:25;34.70;33.90
65072;DHT22;51663;52.310;17.016;2022-10-16T04:18:27;34.70;33.90
65072;DHT22;51663;52.310;17.016;2022-10-16T04:21:29;34.70;33.70
65072;DHT22;51663;52.310;17.016;2022-10-16T04:24:31;34.70;33.70
65072;DHT22;51663;52.310;17.016;2022-10-16T04:27:33;34.80;33.60
65072;DHT22;51663;52.310;17.016;2022-10-16T04:30:38;34.90;33.70
65072;DHT22;51663;52.310;17.016;2022-10-16T04:33:43;35.00;33.70
65072;DHT22;51663;52.310;17.016;2022-10-16T04:36:47;35.00;33.50
65072;DHT22;51663;52.310;17.016;2022-10-16T04:39:50;34.80;33.70
65072;DHT22;51663;52.310;17.016;2022-10-16T04:42:52;34.90;33.90
65072;DHT22;51663;52.310;17.016;2022-10-16T04:45:54;34.90;33.80
65072;DHT22;51663;52.310;17.016;2022-10-16T04:48:56;35.10;33.80
65072;DHT22;51663;52.310;17.016;2022-10-16T04:51:58;35.10;33.50
65072;DHT22;51663;52.310;17.016;2022-10-16T04:55:00;35.20;33.50
65072;DHT22;51663;52.310;17.016;2022-10-16T04:58:04;35.10;33.60
65072;DHT22;51663;52.310;17.016;2022-10-16T05:01:06;35.20;33.50
65072;DHT22;51663;52.310;17.016;2022-10-16T05:04:09;35.20;33.50
65072;DHT22;51663;52.310;17.016;2022-10-16T05:07:12;35.20;33.50
65072;DHT22;51663;52.310;17.016;2022-10-16T05:10:14;35.20;33.70
65072;DHT22;51663;52.310;17.016;2022-10-16T05:13:16;35.20;33.60
65072;DHT22;51663;52.310;17.016;2022-10-16T05:16:18;35.20;33.40
65072;DHT22;51663;52.310;17.016;2022-10-16T05:19:20;35.10;33.40
65072;DHT22;51663;52.310;17.016;2022-10-16T05:22:30;34.90;34.40
65072;DHT22;51663;52.310;17.016;2022-10-16T05:25:32;34.90;33.80
65072;DHT22;51663;52.310;17.016;2022-10-16T05:28:34;34.70;34.20
65072;DHT22;51663;52.310;17.016;2022-10-16T05:31:36;34.80;34.20
65072;DHT22;51663;52.310;17.016;2022-10-16T05:34:38;34.70;34.20
65072;DHT22;51663;52.310;17.016;2022-10-16T05:37:40;34.40;34.70
65072;DHT22;51663;52.310;17.016;2022-10-16T05:40:42;34.40;34.60
65072;DHT22;51663;52.310;17.016;2022-10-16T05:43:44;34.60;34.40
65072;DHT22;51663;52.310;17.016;2022-10-16T05:46:46;34.50;34.50
65072;DHT22;51663;52.310;17.016;2022-10-16T05:49:48;34.60;34.50
65072;DHT22;51663;52.310;17.016;2022-10-16T05:52:50;34.70;34.30
65072;DHT22;51663;52.310;17.016;2022-10-16T05:55:53;34.80;34.20
65072;DHT22;51663;52.310;17.016;2022-10-16T05:58:56;34.90;34.10
65072;DHT22;51663;52.310;17.016;2022-10-16T06:01:57;35.10;34.00
65072;DHT22;51663;52.310;17.016;2022-10-16T06:05:00;35.10;33.90
65072;DHT22;51663;52.310;17.016;2022-10-16T06:08:02;34.90;33.90
65072;DHT22;51663;52.310;17.016;2022-10-16T06:11:05;35.00;33.90
65072;DHT22;51663;52.310;17.016;2022-10-16T06:14:08;35.00;33.80
65072;DHT22;51663;52.310;17.016;2022-10-16T06:17:10;34.90;33.90
65072;DHT22;51663;52.310;17.016;2022-10-16T06:20:12;34.80;34.10
65072;DHT22;51663;52.310;17.016;2022-10-16T06:23:15;34.70;34.30
65072;DHT22;51663;52.310;17.016;2022-10-16T06:26:19;34.80;34.20
65072;DHT22;51663;52.310;17.016;2022-10-16T06:29:21;34.80;34.30
65072;DHT22;51663;52.310;17.016;2022-10-16T06:32:23;34.90;33.90
65072;DHT22;51663;52.310;17.016;2022-10-16T06:35:25;35.10;33.60
65072;DHT22;51663;52.310;17.016;2022-10-16T06:38:27;35.10;33.50
65072;DHT22;51663;52.310;17.016;2022-10-16T06:41:30;35.10;33.60
65072;DHT22;51663;52.310;17.016;2022-10-16T06:44:32;35.10;33.50
65072;DHT22;51663;52.310;17.016;2022-10-16T06:47:34;35.00;33.50
65072;DHT22;51663;52.310;17.016;2022-10-16T06:50:37;34.90;33.70
65072;DHT22;51663;52.310;17.016;2022-10-16T06:53:50;35.00;33.60
65072;DHT22;51663;52.310;17.016;2022-10-16T06:57:04;35.00;33.60
65072;DHT22;51663;52.310;17.016;2022-10-16T07:00:06;34.90;33.70
65072;DHT22;51663;52.310;17.016;2022-10-16T07:03:08;34.90;33.70
65072;DHT22;51663;52.310;17.016;2022-10-16T07:06:12;35.00;33.90
65072;DHT22;51663;52.310;17.016;2022-10-16T07:09:15;35.20;33.70
65072;DHT22;51663;52.310;17.016;2022-10-16T07:12:17;35.40;33.30
65072;DHT22;51663;52.310;17.016;2022-10-16T07:15:19;35.40;33.40
65072;DHT22;51663;52.310;17.016;2022-10-16T07:18:21;35.50;33.30
65072;DHT22;51663;52.310;17.016;2022-10-16T07:21:30;35.60;33.30
65072;DHT22;51663;52.310;17.016;2022-10-16T07:24:35;35.70;33.10
65072;DHT22;51663;52.310;17.016;2022-10-16T07:27:37;35.60;33.00
65072;DHT22;51663;52.310;17.016;2022-10-16T07:30:42;35.60;33.00
65072;DHT22;51663;52.310;17.016;2022-10-16T07:33:45;35.60;32.80
65072;DHT22;51663;52.310;17.016;2022-10-16T07:36:52;35.60;32.90
65072;DHT22;51663;52.310;17.016;2022-10-16T07:39:54;35.70;32.90
65072;DHT22;51663;52.310;17.016;2022-10-16T07:42:56;35.90;32.90
65072;DHT22;51663;52.310;17.016;2022-10-16T07:45:58;36.00;32.70
65072;DHT22;51663;52.310;17.016;2022-10-16T07:49:06;35.80;32.70
65072;DHT22;51663;52.310;17.016;2022-10-16T07:52:08;36.00;32.90
65072;DHT22;51663;52.310;17.016;2022-10-16T07:55:10;36.10;32.70
65072;DHT22;51663;52.310;17.016;2022-10-16T07:58:12;36.30;32.60
65072;DHT22;51663;52.310;17.016;2022-10-16T08:01:15;36.20;32.50
65072;DHT22;51663;52.310;17.016;2022-10-16T08:04:18;36.20;32.60
65072;DHT22;51663;52.310;17.016;2022-10-16T08:07:20;36.30;32.60
65072;DHT22;51663;52.310;17.016;2022-10-16T08:10:23;36.30;32.60
65072;DHT22;51663;52.310;17.016;2022-10-16T08:13:26;36.50;32.40
65072;DHT22;51663;52.310;17.016;2022-10-16T08:16:28;36.50;33.30
65072;DHT22;51663;52.310;17.016;2022-10-16T08:19:30;36.50;32.50
65072;DHT22;51663;52.310;17.016;2022-10-16T08:22:35;36.50;32.50
65072;DHT22;51663;52.310;17.016;2022-10-16T08:25:38;36.60;32.30
65072;DHT22;51663;52.310;17.016;2022-10-16T08:28:40;36.70;32.30
65072;DHT22;51663;52.310;17.016;2022-10-16T08:31:43;36.60;32.30
65072;DHT22;51663;52.310;17.016;2022-10-16T08:34:45;36.50;32.90
65072;DHT22;51663;52.310;17.016;2022-10-16T08:37:47;36.80;32.50
65072;DHT22;51663;52.310;17.016;2022-10-16T08:40:49;36.90;32.30
65072;DHT22;51663;52.310;17.016;2022-10-16T08:44:22;37.20;32.10
65072;DHT22;51663;52.310;17.016;2022-10-16T08:47:43;37.40;32.00
65072;DHT22;51663;52.310;17.016;2022-10-16T08:50:54;37.50;31.50
65072;DHT22;51663;52.310;17.016;2022-10-16T08:54:05;37.70;32.00
65072;DHT22;51663;52.310;17.016;2022-10-16T08:57:19;37.70;31.50
65072;DHT22;51663;52.310;17.016;2022-10-16T09:00:26;37.70;31.40
65072;DHT22;51663;52.310;17.016;2022-10-16T09:10:41;37.70;31.70
65072;DHT22;51663;52.310;17.016;2022-10-16T09:17:32;37.90;31.50
65072;DHT22;51663;52.310;17.016;2022-10-16T09:20:53;37.80;31.40
65072;DHT22;51663;52.310;17.016;2022-10-16T09:24:33;37.80;31.60
65072;DHT22;51663;52.310;17.016;2022-10-16T09:27:36;38.10;31.00
65072;DHT22;51663;52.310;17.016;2022-10-16T09:30:43;38.00;30.90
65072;DHT22;51663;52.310;17.016;2022-10-16T09:34:00;37.90;30.80
65072;DHT22;51663;52.310;17.016;2022-10-16T09:37:13;37.90;31.30
65072;DHT22;51663;52.310;17.016;2022-10-16T09:40:50;37.80;31.20
65072;DHT22;51663;52.310;17.016;2022-10-16T09:44:06;37.50;31.60
65072;DHT22;51663;52.310;17.016;2022-10-16T09:47:27;37.70;31.60
65072;DHT22;51663;52.310;17.016;2022-10-16T09:50:31;37.70;31.70
65072;DHT22;51663;52.310;17.016;2022-10-16T09:53:42;37.50;31.80
65072;DHT22;51663;52.310;17.016;2022-10-16T09:56:45;37.40;32.10
65072;DHT22;51663;52.310;17.016;2022-10-16T09:59:52;37.60;31.90
65072;DHT22;51663;52.310;17.016;2022-10-16T10:02:57;37.40;32.00
65072;DHT22;51663;52.310;17.016;2022-10-16T10:06:02;37.50;32.10
65072;DHT22;51663;52.310;17.016;2022-10-16T10:09:17;37.40;32.10
65072;DHT22;51663;52.310;17.016;2022-10-16T10:12:23;37.50;32.20
65072;DHT22;51663;52.310;17.016;2022-10-16T10:15:33;37.80;31.90
65072;DHT22;51663;52.310;17.016;2022-10-16T10:18:36;38.20;31.50
65072;DHT22;51663;52.310;17.016;2022-10-16T10:21:39;38.30;31.50
65072;DHT22;51663;52.310;17.016;2022-10-16T10:24:40;38.20;31.20
65072;DHT22;51663;52.310;17.016;2022-10-16T10:31:16;38.10;31.40
65072;DHT22;51663;52.310;17.016;2022-10-16T10:51:12;38.10;31.40
65072;DHT22;51663;52.310;17.016;2022-10-16T10:54:29;38.10;31.50
65072;DHT22;51663;52.310;17.016;2022-10-16T11:01:30;38.00;31.30
65072;DHT22;51663;52.310;17.016;2022-10-16T11:18:52;38.40;31.00
65072;DHT22;51663;52.310;17.016;2022-10-16T11:22:15;38.50;31.10
65072;DHT22;51663;52.310;17.016;2022-10-16T11:25:33;38.60;30.70
65072;DHT22;51663;52.310;17.016;2022-10-16T11:28:49;38.70;30.60
65072;DHT22;51663;52.310;17.016;2022-10-16T11:32:10;38.40;30.50
65072;DHT22;51663;52.310;17.016;2022-10-16T11:35:19;38.00;31.00
65072;DHT22;51663;52.310;17.016;2022-10-16T11:38:48;38.20;31.10
65072;DHT22;51663;52.310;17.016;2022-10-16T11:42:11;38.50;30.60
65072;DHT22;51663;52.310;17.016;2022-10-16T11:45:39;38.80;30.00
65072;DHT22;51663;52.310;17.016;2022-10-16T11:49:03;38.60;30.20
65072;DHT22;51663;52.310;17.016;2022-10-16T11:55:36;38.70;30.90
65072;DHT22;51663;52.310;17.016;2022-10-16T12:01:56;39.10;30.00
65072;DHT22;51663;52.310;17.016;2022-10-16T12:05:28;39.10;30.00
65072;DHT22;51663;52.310;17.016;2022-10-16T12:08:34;39.20;30.00
65072;DHT22;51663;52.310;17.016;2022-10-16T12:11:38;39.00;30.00
65072;DHT22;51663;52.310;17.016;2022-10-16T12:14:42;38.90;30.00
65072;DHT22;51663;52.310;17.016;2022-10-16T12:18:07;38.70;30.50
65072;DHT22;51663;52.310;17.016;2022-10-16T12:21:30;38.50;30.30
65072;DHT22;51663;52.310;17.016;2022-10-16T12:24:37;38.30;30.50
65072;DHT22;51663;52.310;17.016;2022-10-16T12:27:40;38.50;30.20
65072;DHT22;51663;52.310;17.016;2022-10-16T12:30:43;38.50;30.40
65072;DHT22;51663;52.310;17.016;2022-10-16T12:33:58;38.50;30.20
65072;DHT22;51663;52.310;17.016;2022-10-16T12:43:27;37.70;30.40
65072;DHT22;51663;52.310;17.016;2022-10-16T12:49:37;38.30;29.90
65072;DHT22;51663;52.310;17.016;2022-10-16T12:52:40;38.60;29.80
65072;DHT22;51663;52.310;17.016;2022-10-16T13:12:25;37.90;29.70
65072;DHT22;51663;52.310;17.016;2022-10-16T13:29:09;37.90;30.00
65072;DHT22;51663;52.310;17.016;2022-10-16T13:32:14;38.30;29.70
65072;DHT22;51663;52.310;17.016;2022-10-16T13:35:26;38.70;29.50
65072;DHT22;51663;52.310;17.016;2022-10-16T13:38:31;38.80;29.40
65072;DHT22;51663;52.310;17.016;2022-10-16T13:41:36;38.90;29.40
65072;DHT22;51663;52.310;17.016;2022-10-16T13:44:47;38.80;29.30
65072;DHT22;51663;52.310;17.016;2022-10-16T13:47:50;39.00;29.20
65072;DHT22;51663;52.310;17.016;2022-10-16T13:51:04;38.90;29.40
65072;DHT22;51663;52.310;17.016;2022-10-16T13:54:09;38.90;29.30
65072;DHT22;51663;52.310;17.016;2022-10-16T13:57:16;38.90;29.40
65072;DHT22;51663;52.310;17.016;2022-10-16T14:00:34;38.00;29.90
65072;DHT22;51663;52.310;17.016;2022-10-16T14:03:45;37.60;30.30
65072;DHT22;51663;52.310;17.016;2022-10-16T14:06:50;37.70;30.30
65072;DHT22;51663;52.310;17.016;2022-10-16T14:09:54;38.00;29.90
65072;DHT22;51663;52.310;17.016;2022-10-16T14:13:13;37.90;29.90
65072;DHT22;51663;52.310;17.016;2022-10-16T14:16:20;37.80;29.90
65072;DHT22;51663;52.310;17.016;2022-10-16T14:19:28;38.20;29.70
65072;DHT22;51663;52.310;17.016;2022-10-16T14:22:33;38.50;29.60
65072;DHT22;51663;52.310;17.016;2022-10-16T14:25:36;38.60;29.50
65072;DHT22;51663;52.310;17.016;2022-10-16T14:28:39;38.50;29.60
65072;DHT22;51663;52.310;17.016;2022-10-16T14:32:04;38.50;29.80
65072;DHT22;51663;52.310;17.016;2022-10-16T14:35:31;38.40;29.70
65072;DHT22;51663;52.310;17.016;2022-10-16T14:38:35;38.50;29.70
65072;DHT22;51663;52.310;17.016;2022-10-16T14:41:44;38.60;29.50
65072;DHT22;51663;52.310;17.016;2022-10-16T14:44:47;38.50;29.80
65072;DHT22;51663;52.310;17.016;2022-10-16T14:47:54;38.40;29.80
65072;DHT22;51663;52.310;17.016;2022-10-16T14:50:57;38.50;29.80
65072;DHT22;51663;52.310;17.016;2022-10-16T14:54:00;38.60;29.70
65072;DHT22;51663;52.310;17.016;2022-10-16T14:57:04;38.80;29.80
65072;DHT22;51663;52.310;17.016;2022-10-16T15:00:17;38.80;29.70
65072;DHT22;51663;52.310;17.016;2022-10-16T15:03:19;38.90;29.80
65072;DHT22;51663;52.310;17.016;2022-10-16T15:06:21;38.50;29.90
65072;DHT22;51663;52.310;17.016;2022-10-16T15:09:23;38.60;29.90
65072;DHT22;51663;52.310;17.016;2022-10-16T15:12:26;38.60;29.80
65072;DHT22;51663;52.310;17.016;2022-10-16T15:15:36;38.50;30.00
65072;DHT22;51663;52.310;17.016;2022-10-16T15:18:42;38.30;30.10
65072;DHT22;51663;52.310;17.016;2022-10-16T15:21:48;38.20;30.30
65072;DHT22;51663;52.310;17.016;2022-10-16T15:24:50;38.00;30.40
65072;DHT22;51663;52.310;17.016;2022-10-16T15:27:55;37.90;30.60
65072;DHT22;51663;52.310;17.016;2022-10-16T15:31:04;37.90;30.70
65072;DHT22;51663;52.310;17.016;2022-10-16T15:34:09;37.80;30.70
65072;DHT22;51663;52.310;17.016;2022-10-16T15:37:11;37.80;30.70
65072;DHT22;51663;52.310;17.016;2022-10-16T15:40:17;37.70;30.80
65072;DHT22;51663;52.310;17.016;2022-10-16T15:43:20;37.70;31.00
65072;DHT22;51663;52.310;17.016;2022-10-16T15:46:23;37.70;30.90
65072;DHT22;51663;52.310;17.016;2022-10-16T15:49:26;37.70;30.80
65072;DHT22;51663;52.310;17.016;2022-10-16T15:52:28;37.60;30.90
65072;DHT22;51663;52.310;17.016;2022-10-16T15:55:31;37.50;30.70
65072;DHT22;51663;52.310;17.016;2022-10-16T15:58:33;37.40;30.90
65072;DHT22;51663;52.310;17.016;2022-10-16T16:01:36;37.20;31.00
65072;DHT22;51663;52.310;17.016;2022-10-16T16:04:38;37.10;31.00
65072;DHT22;51663;52.310;17.016;2022-10-16T16:07:46;37.00;31.00
65072;DHT22;51663;52.310;17.016;2022-10-16T16:11:03;36.80;31.20
65072;DHT22;51663;52.310;17.016;2022-10-16T16:14:07;36.70;30.80
65072;DHT22;51663;52.310;17.016;2022-10-16T16:17:12;36.60;31.10
65072;DHT22;51663;52.310;17.016;2022-10-16T16:20:14;36.50;31.00
65072;DHT22;51663;52.310;17.016;2022-10-16T16:23:16;36.40;30.60
65072;DHT22;51663;52.310;17.016;2022-10-16T16:26:29;36.30;31.00
65072;DHT22;51663;52.310;17.016;2022-10-16T16:29:36;36.20;31.10
65072;DHT22;51663;52.310;17.016;2022-10-16T16:32:38;36.10;31.10
65072;DHT22;51663;52.310;17.016;2022-10-16T16:35:40;36.00;31.20
65072;DHT22;51663;52.310;17.016;2022-10-16T16:38:42;35.90;31.50
65072;DHT22;51663;52.310;17.016;2022-10-16T16:41:44;35.80;31.10
65072;DHT22;51663;52.310;17.016;2022-10-16T16:44:47;35.70;30.90
65072;DHT22;51663;52.310;17.016;2022-10-16T16:47:49;35.60;30.70
65072;DHT22;51663;52.310;17.016;2022-10-16T16:50:52;35.60;31.10
65072;DHT22;51663;52.310;17.016;2022-10-16T16:53:54;35.50;30.90
65072;DHT22;51663;52.310;17.016;2022-10-16T16:56:56;35.40;30.60
65072;DHT22;51663;52.310;17.016;2022-10-16T16:59:58;35.30;30.90
65072;DHT22;51663;52.310;17.016;2022-10-16T17:03:00;35.20;30.90
65072;DHT22;51663;52.310;17.016;2022-10-16T17:06:05;35.20;30.60
65072;DHT22;51663;52.310;17.016;2022-10-16T17:09:08;35.20;30.60
65072;DHT22;51663;52.310;17.016;2022-10-16T17:12:11;35.10;30.50
65072;DHT22;51663;52.310;17.016;2022-10-16T17:15:13;35.10;30.70
65072;DHT22;51663;52.310;17.016;2022-10-16T17:18:15;35.00;30.50
65072;DHT22;51663;52.310;17.016;2022-10-16T17:21:17;35.00;31.00
65072;DHT22;51663;52.310;17.016;2022-10-16T17:24:19;34.90;31.10
65072;DHT22;51663;52.310;17.016;2022-10-16T17:27:22;34.90;30.80
65072;DHT22;51663;52.310;17.016;2022-10-16T17:30:24;34.90;30.60
65072;DHT22;51663;52.310;17.016;2022-10-16T17:33:26;34.80;30.50
65072;DHT22;51663;52.310;17.016;2022-10-16T17:36:31;34.80;30.90
65072;DHT22;51663;52.310;17.016;2022-10-16T17:39:34;34.80;30.80
65072;DHT22;51663;52.310;17.016;2022-10-16T17:42:36;34.80;30.90
65072;DHT22;51663;52.310;17.016;2022-10-16T17:45:39;34.70;31.00
65072;DHT22;51663;52.310;17.016;2022-10-16T17:48:46;34.70;30.60
65072;DHT22;51663;52.310;17.016;2022-10-16T17:51:51;34.60;30.60
65072;DHT22;51663;52.310;17.016;2022-10-16T17:54:56;34.60;30.80
65072;DHT22;51663;52.310;17.016;2022-10-16T17:58:01;34.60;30.50
65072;DHT22;51663;52.310;17.016;2022-10-16T18:01:14;34.50;30.20
65072;DHT22;51663;52.310;17.016;2022-10-16T18:04:17;34.50;30.30
65072;DHT22;51663;52.310;17.016;2022-10-16T18:07:19;34.40;29.70
65072;DHT22;51663;52.310;17.016;2022-10-16T18:10:21;34.40;30.70
65072;DHT22;51663;52.310;17.016;2022-10-16T18:13:23;34.40;29.90
65072;DHT22;51663;52.310;17.016;2022-10-16T18:16:27;34.30;29.90
65072;DHT22;51663;52.310;17.016;2022-10-16T18:19:30;34.20;30.00
65072;DHT22;51663;52.310;17.016;2022-10-16T18:22:36;34.20;30.00
65072;DHT22;51663;52.310;17.016;2022-10-16T18:25:39;34.10;29.80
65072;DHT22;51663;52.310;17.016;2022-10-16T18:28:50;34.20;29.60
65072;DHT22;51663;52.310;17.016;2022-10-16T18:31:53;34.10;29.90
65072;DHT22;51663;52.310;17.016;2022-10-16T18:34:55;34.00;29.90
65072;DHT22;51663;52.310;17.016;2022-10-16T18:37:57;34.00;29.70
65072;DHT22;51663;52.310;17.016;2022-10-16T18:41:01;34.00;29.80
65072;DHT22;51663;52.310;17.016;2022-10-16T18:44:07;33.90;29.90
65072;DHT22;51663;52.310;17.016;2022-10-16T18:47:10;33.90;29.90
65072;DHT22;51663;52.310;17.016;2022-10-16T18:50:12;33.90;30.00
65072;DHT22;51663;52.310;17.016;2022-10-16T18:53:14;33.90;29.80
65072;DHT22;51663;52.310;17.016;2022-10-16T18:56:18;33.90;29.90
65072;DHT22;51663;52.310;17.016;2022-10-16T18:59:20;33.90;29.90
65072;DHT22;51663;52.310;17.016;2022-10-16T19:02:23;33.80;30.40
65072;DHT22;51663;52.310;17.016;2022-10-16T19:05:25;33.80;30.10
65072;DHT22;51663;52.310;17.016;2022-10-16T19:08:27;33.70;30.20
65072;DHT22;51663;52.310;17.016;2022-10-16T19:11:33;33.60;31.30
65072;DHT22;51663;52.310;17.016;2022-10-16T19:14:41;33.60;31.10
65072;DHT22;51663;52.310;17.016;2022-10-16T19:17:46;33.70;30.70
65072;DHT22;51663;52.310;17.016;2022-10-16T19:20:48;33.60;28.60
65072;DHT22;51663;52.310;17.016;2022-10-16T19:23:58;33.60;29.80
65072;DHT22;51663;52.310;17.016;2022-10-16T19:27:01;33.50;30.00
65072;DHT22;51663;52.310;17.016;2022-10-16T19:30:03;33.50;30.50
65072;DHT22;51663;52.310;17.016;2022-10-16T19:33:05;33.50;31.50
65072;DHT22;51663;52.310;17.016;2022-10-16T19:36:12;33.50;29.10
65072;DHT22;51663;52.310;17.016;2022-10-16T19:39:15;33.50;29.60
65072;DHT22;51663;52.310;17.016;2022-10-16T19:42:18;33.40;29.40
65072;DHT22;51663;52.310;17.016;2022-10-16T19:45:21;33.40;29.40
65072;DHT22;51663;52.310;17.016;2022-10-16T19:48:23;33.40;29.00
65072;DHT22;51663;52.310;17.016;2022-10-16T19:51:31;33.40;29.00
65072;DHT22;51663;52.310;17.016;2022-10-16T19:54:33;33.40;29.10
65072;DHT22;51663;52.310;17.016;2022-10-16T19:57:37;33.40;28.90
65072;DHT22;51663;52.310;17.016;2022-10-16T20:00:42;33.30;29.00
65072;DHT22;51663;52.310;17.016;2022-10-16T20:03:45;33.30;29.60
65072;DHT22;51663;52.310;17.016;2022-10-16T20:06:48;33.30;29.10
65072;DHT22;51663;52.310;17.016;2022-10-16T20:09:50;33.30;29.10
65072;DHT22;51663;52.310;17.016;2022-10-16T20:12:54;33.30;28.70
65072;DHT22;51663;52.310;17.016;2022-10-16T20:15:56;33.30;28.90
65072;DHT22;51663;52.310;17.016;2022-10-16T20:18:58;33.20;28.90
65072;DHT22;51663;52.310;17.016;2022-10-16T20:22:01;33.20;28.90
65072;DHT22;51663;52.310;17.016;2022-10-16T20:25:05;33.20;28.70
65072;DHT22;51663;52.310;17.016;2022-10-16T20:28:13;33.10;28.80
65072;DHT22;51663;52.310;17.016;2022-10-16T20:31:22;33.10;28.90
65072;DHT22;51663;52.310;17.016;2022-10-16T20:34:25;33.10;28.90
65072;DHT22;51663;52.310;17.016;2022-10-16T20:37:27;33.00;29.20
65072;DHT22;51663;52.310;17.016;2022-10-16T20:40:33;33.10;29.50
65072;DHT22;51663;52.310;17.016;2022-10-16T20:43:40;33.10;29.40
65072;DHT22;51663;52.310;17.016;2022-10-16T20:46:42;33.10;29.70
65072;DHT22;51663;52.310;17.016;2022-10-16T20:49:44;33.00;29.20
65072;DHT22;51663;52.310;17.016;2022-10-16T20:52:46;33.10;29.20
65072;DHT22;51663;52.310;17.016;2022-10-16T20:55:49;33.10;28.50
65072;DHT22;51663;52.310;17.016;2022-10-16T20:58:52;33.00;29.60
65072;DHT22;51663;52.310;17.016;2022-10-16T21:01:54;33.00;29.10